sensor_id;sensor_type;location;lat;lon;timestamp;P1;durP1;ratioP1;P2;durP2;ratioP2
47239;SDS011;32978;53.586;10.052;2022-12-07T00:01:14;95.57;;;89.07;;
47239;SDS011;32978;53.586;10.052;2022-12-07T00:06:11;95.10;;;88.55;;
47239;SDS011;32978;53.586;10.052;2022-12-07T00:11:09;101.03;;;94.43;;
47239;SDS011;32978;53.586;10.052;2022-12-07T00:16:07;102.35;;;95.75;;
47239;SDS011;32978;53.586;10.052;2022-12-07T00:21:05;100.55;;;94.15;;
47239;SDS011;32978;53.586;10.052;2022-12-07T00:26:06;103.13;;;96.18;;
47239;SDS011;32978;53.586;10.052;2022-12-07T00:31:04;94.68;;;88.38;;
47239;SDS011;32978;53.586;10.052;2022-12-07T00:36:02;99.97;;;93.13;;
47239;SDS011;32978;53.586;10.052;2022-12-07T00:41:07;98.35;;;91.95;;
47239;SDS011;32978;53.586;10.052;2022-12-07T00:46:04;97.65;;;91.28;;
47239;SDS011;32978;53.586;10.052;2022-12-07T00:51:00;96.57;;;90.22;;
47239;SDS011;32978;53.586;10.052;2022-12-07T00:55:57;97.07;;;90.35;;
47239;SDS011;32978;53.586;10.052;2022-12-07T01:00:53;101.78;;;94.78;;
47239;SDS011;32978;53.586;10.052;2022-12-07T01:05:52;99.28;;;92.60;;
47239;SDS011;32978;53.586;10.052;2022-12-07T01:10:49;102.20;;;95.40;;
47239;SDS011;32978;53.586;10.052;2022-12-07T01:15:45;102.18;;;95.57;;
47239;SDS011;32978;53.586;10.052;2022-12-07T01:20:42;94.55;;;88.15;;
47239;SDS011;32978;53.586;10.052;2022-12-07T01:25:38;98.85;;;92.38;;
47239;SDS011;32978;53.586;10.052;2022-12-07T01:30:34;98.60;;;92.20;;
47239;SDS011;32978;53.586;10.052;2022-12-07T01:35:33;101.43;;;94.63;;
47239;SDS011;32978;53.586;10.052;2022-12-07T01:40:29;96.63;;;90.53;;
47239;SDS011;32978;53.586;10.052;2022-12-07T01:45:37;98.03;;;91.82;;
47239;SDS011;32978;53.586;10.052;2022-12-07T01:50:34;100.40;;;93.57;;
47239;SDS011;32978;53.586;10.052;2022-12-07T01:55:31;100.75;;;94.25;;
47239;SDS011;32978;53.586;10.052;2022-12-07T02:00:28;98.10;;;91.38;;
47239;SDS011;32978;53.586;10.052;2022-12-07T02:05:24;99.13;;;92.85;;
47239;SDS011;32978;53.586;10.052;2022-12-07T02:10:25;100.60;;;94.22;;
47239;SDS011;32978;53.586;10.052;2022-12-07T02:15:23;98.22;;;91.72;;
47239;SDS011;32978;53.586;10.052;2022-12-07T02:20:33;97.70;;;91.55;;
47239;SDS011;32978;53.586;10.052;2022-12-07T02:25:37;98.05;;;91.85;;
47239;SDS011;32978;53.586;10.052;2022-12-07T02:30:40;99.45;;;93.20;;
47239;SDS011;32978;53.586;10.052;2022-12-07T02:40:52;104.70;;;97.88;;
47239;SDS011;32978;53.586;10.052;2022-12-07T02:45:49;99.28;;;93.13;;
47239;SDS011;32978;53.586;10.052;2022-12-07T02:50:50;101.40;;;95.13;;
47239;SDS011;32978;53.586;10.052;2022-12-07T02:55:47;99.40;;;93.30;;
47239;SDS011;32978;53.586;10.052;2022-12-07T03:06:08;97.03;;;91.47;;
47239;SDS011;32978;53.586;10.052;2022-12-07T03:11:07;97.88;;;92.18;;
47239;SDS011;32978;53.586;10.052;2022-12-07T03:21:02;100.30;;;94.53;;
47239;SDS011;32978;53.586;10.052;2022-12-07T03:26:01;98.85;;;92.78;;
47239;SDS011;32978;53.586;10.052;2022-12-07T03:31:03;100.07;;;93.90;;
47239;SDS011;32978;53.586;10.052;2022-12-07T03:36:02;100.55;;;94.50;;
47239;SDS011;32978;53.586;10.052;2022-12-07T03:41:12;102.80;;;96.80;;
47239;SDS011;32978;53.586;10.052;2022-12-07T03:51:28;101.18;;;95.72;;
47239;SDS011;32978;53.586;10.052;2022-12-07T03:56:27;101.43;;;95.82;;
47239;SDS011;32978;53.586;10.052;2022-12-07T04:01:25;93.82;;;88.53;;
47239;SDS011;32978;53.586;10.052;2022-12-07T04:06:21;93.47;;;88.07;;
47239;SDS011;32978;53.586;10.052;2022-12-07T04:11:17;88.75;;;83.80;;
47239;SDS011;32978;53.586;10.052;2022-12-07T04:16:14;96.85;;;91.53;;
47239;SDS011;32978;53.586;10.052;2022-12-07T04:21:10;92.25;;;86.95;;
47239;SDS011;32978;53.586;10.052;2022-12-07T04:26:06;89.47;;;84.40;;
47239;SDS011;32978;53.586;10.052;2022-12-07T04:31:03;83.90;;;78.95;;
47239;SDS011;32978;53.586;10.052;2022-12-07T04:35:59;90.80;;;85.50;;
47239;SDS011;32978;53.586;10.052;2022-12-07T04:40:55;89.70;;;84.32;;
47239;SDS011;32978;53.586;10.052;2022-12-07T04:45:52;90.63;;;85.32;;
47239;SDS011;32978;53.586;10.052;2022-12-07T04:50:48;91.05;;;85.63;;
47239;SDS011;32978;53.586;10.052;2022-12-07T04:55:47;98.03;;;92.32;;
47239;SDS011;32978;53.586;10.052;2022-12-07T05:00:44;95.20;;;89.40;;
47239;SDS011;32978;53.586;10.052;2022-12-07T05:05:41;96.22;;;90.35;;
47239;SDS011;32978;53.586;10.052;2022-12-07T05:10:38;99.85;;;93.63;;
47239;SDS011;32978;53.586;10.052;2022-12-07T05:15:34;100.22;;;94.10;;
47239;SDS011;32978;53.586;10.052;2022-12-07T05:20:30;104.68;;;98.28;;
47239;SDS011;32978;53.586;10.052;2022-12-07T05:25:27;102.57;;;96.40;;
47239;SDS011;32978;53.586;10.052;2022-12-07T05:30:23;102.00;;;95.75;;
47239;SDS011;32978;53.586;10.052;2022-12-07T05:35:20;99.15;;;92.53;;
47239;SDS011;32978;53.586;10.052;2022-12-07T05:40:17;97.05;;;91.40;;
47239;SDS011;32978;53.586;10.052;2022-12-07T05:45:15;98.03;;;92.20;;
47239;SDS011;32978;53.586;10.052;2022-12-07T05:50:11;102.30;;;96.35;;
47239;SDS011;32978;53.586;10.052;2022-12-07T05:55:08;104.78;;;98.47;;
47239;SDS011;32978;53.586;10.052;2022-12-07T06:00:04;100.10;;;94.40;;
47239;SDS011;32978;53.586;10.052;2022-12-07T06:05:02;101.10;;;94.20;;
47239;SDS011;32978;53.586;10.052;2022-12-07T06:09:58;96.88;;;91.18;;
47239;SDS011;32978;53.586;10.052;2022-12-07T06:14:55;97.95;;;92.13;;
47239;SDS011;32978;53.586;10.052;2022-12-07T06:19:52;90.35;;;84.95;;
47239;SDS011;32978;53.586;10.052;2022-12-07T06:24:48;98.55;;;93.00;;
47239;SDS011;32978;53.586;10.052;2022-12-07T06:29:44;90.88;;;85.72;;
47239;SDS011;32978;53.586;10.052;2022-12-07T06:34:41;92.65;;;87.25;;
47239;SDS011;32978;53.586;10.052;2022-12-07T06:39:37;94.18;;;88.88;;
47239;SDS011;32978;53.586;10.052;2022-12-07T06:44:34;98.25;;;92.40;;
47239;SDS011;32978;53.586;10.052;2022-12-07T06:49:30;99.22;;;93.80;;
47239;SDS011;32978;53.586;10.052;2022-12-07T06:54:27;96.38;;;90.95;;
47239;SDS011;32978;53.586;10.052;2022-12-07T06:59:23;92.55;;;86.93;;
47239;SDS011;32978;53.586;10.052;2022-12-07T07:04:19;85.75;;;80.85;;
47239;SDS011;32978;53.586;10.052;2022-12-07T07:09:16;81.97;;;76.80;;
47239;SDS011;32978;53.586;10.052;2022-12-07T07:14:12;79.97;;;75.57;;
47239;SDS011;32978;53.586;10.052;2022-12-07T07:19:08;83.13;;;77.75;;
47239;SDS011;32978;53.586;10.052;2022-12-07T07:24:05;77.93;;;73.38;;
47239;SDS011;32978;53.586;10.052;2022-12-07T07:29:01;79.78;;;75.03;;
47239;SDS011;32978;53.586;10.052;2022-12-07T07:33:58;71.22;;;67.10;;
47239;SDS011;32978;53.586;10.052;2022-12-07T07:38:54;72.85;;;68.85;;
47239;SDS011;32978;53.586;10.052;2022-12-07T07:43:50;70.55;;;66.35;;
47239;SDS011;32978;53.586;10.052;2022-12-07T07:48:47;69.50;;;65.53;;
47239;SDS011;32978;53.586;10.052;2022-12-07T07:53:43;70.43;;;66.25;;
47239;SDS011;32978;53.586;10.052;2022-12-07T07:58:39;69.50;;;65.55;;
47239;SDS011;32978;53.586;10.052;2022-12-07T08:03:36;68.10;;;64.10;;
47239;SDS011;32978;53.586;10.052;2022-12-07T08:08:32;69.68;;;65.78;;
47239;SDS011;32978;53.586;10.052;2022-12-07T08:13:29;68.63;;;64.80;;
47239;SDS011;32978;53.586;10.052;2022-12-07T08:18:27;67.03;;;63.30;;
47239;SDS011;32978;53.586;10.052;2022-12-07T08:23:23;66.55;;;62.70;;
47239;SDS011;32978;53.586;10.052;2022-12-07T08:28:32;60.72;;;56.95;;
47239;SDS011;32978;53.586;10.052;2022-12-07T08:33:28;58.40;;;55.03;;
47239;SDS011;32978;53.586;10.052;2022-12-07T08:38:25;53.28;;;50.47;;
47239;SDS011;32978;53.586;10.052;2022-12-07T08:43:27;50.93;;;47.87;;
47239;SDS011;32978;53.586;10.052;2022-12-07T08:48:23;43.90;;;41.22;;
47239;SDS011;32978;53.586;10.052;2022-12-07T08:53:20;42.35;;;39.50;;
47239;SDS011;32978;53.586;10.052;2022-12-07T08:58:17;41.80;;;39.30;;
47239;SDS011;32978;53.586;10.052;2022-12-07T09:03:13;37.80;;;34.95;;
47239;SDS011;32978;53.586;10.052;2022-12-07T09:08:10;37.50;;;35.00;;
47239;SDS011;32978;53.586;10.052;2022-12-07T09:13:07;36.50;;;34.33;;
47239;SDS011;32978;53.586;10.052;2022-12-07T09:18:04;36.42;;;34.10;;
47239;SDS011;32978;53.586;10.052;2022-12-07T09:23:00;36.97;;;34.67;;
47239;SDS011;32978;53.586;10.052;2022-12-07T09:27:57;37.38;;;35.05;;
47239;SDS011;32978;53.586;10.052;2022-12-07T09:32:54;35.92;;;33.80;;
47239;SDS011;32978;53.586;10.052;2022-12-07T09:37:50;34.63;;;32.15;;
47239;SDS011;32978;53.586;10.052;2022-12-07T09:42:47;30.23;;;28.08;;
47239;SDS011;32978;53.586;10.052;2022-12-07T09:47:44;29.95;;;27.92;;
47239;SDS011;32978;53.586;10.052;2022-12-07T09:52:41;29.65;;;27.55;;
47239;SDS011;32978;53.586;10.052;2022-12-07T09:57:38;27.35;;;25.48;;
47239;SDS011;32978;53.586;10.052;2022-12-07T10:02:37;26.13;;;24.23;;
47239;SDS011;32978;53.586;10.052;2022-12-07T10:07:34;22.60;;;21.00;;
47239;SDS011;32978;53.586;10.052;2022-12-07T10:12:30;23.38;;;21.17;;
47239;SDS011;32978;53.586;10.052;2022-12-07T10:17:30;22.00;;;20.40;;
47239;SDS011;32978;53.586;10.052;2022-12-07T10:22:27;22.42;;;20.42;;
47239;SDS011;32978;53.586;10.052;2022-12-07T10:27:31;21.85;;;20.15;;
47239;SDS011;32978;53.586;10.052;2022-12-07T10:32:29;20.48;;;19.00;;
47239;SDS011;32978;53.586;10.052;2022-12-07T10:37:27;21.20;;;19.30;;
47239;SDS011;32978;53.586;10.052;2022-12-07T10:42:25;20.10;;;18.35;;
47239;SDS011;32978;53.586;10.052;2022-12-07T10:47:38;20.73;;;18.92;;
47239;SDS011;32978;53.586;10.052;2022-12-07T10:58:03;19.90;;;18.40;;
47239;SDS011;32978;53.586;10.052;2022-12-07T11:13:44;16.63;;;15.32;;
47239;SDS011;32978;53.586;10.052;2022-12-07T11:24:01;16.35;;;14.80;;
47239;SDS011;32978;53.586;10.052;2022-12-07T11:33:57;14.20;;;12.82;;
47239;SDS011;32978;53.586;10.052;2022-12-07T11:38:57;15.25;;;13.70;;
47239;SDS011;32978;53.586;10.052;2022-12-07T11:43:58;14.68;;;13.27;;
47239;SDS011;32978;53.586;10.052;2022-12-07T11:48:58;15.80;;;13.88;;
47239;SDS011;32978;53.586;10.052;2022-12-07T11:53:59;13.38;;;12.20;;
47239;SDS011;32978;53.586;10.052;2022-12-07T11:59:00;13.55;;;12.32;;
47239;SDS011;32978;53.586;10.052;2022-12-07T12:04:06;13.20;;;11.80;;
47239;SDS011;32978;53.586;10.052;2022-12-07T12:09:16;12.20;;;11.30;;
47239;SDS011;32978;53.586;10.052;2022-12-07T12:19:34;14.25;;;9.30;;
47239;SDS011;32978;53.586;10.052;2022-12-07T12:24:33;9.75;;;8.70;;
47239;SDS011;32978;53.586;10.052;2022-12-07T12:29:34;10.57;;;8.05;;
47239;SDS011;32978;53.586;10.052;2022-12-07T12:34:41;10.35;;;8.05;;
47239;SDS011;32978;53.586;10.052;2022-12-07T12:40:12;17.70;;;8.50;;
47239;SDS011;32978;53.586;10.052;2022-12-07T12:45:02;13.82;;;9.00;;
47239;SDS011;32978;53.586;10.052;2022-12-07T12:50:15;9.52;;;8.00;;
47239;SDS011;32978;53.586;10.052;2022-12-07T12:55:13;11.63;;;7.93;;
47239;SDS011;32978;53.586;10.052;2022-12-07T13:00:20;11.52;;;7.80;;
47239;SDS011;32978;53.586;10.052;2022-12-07T13:05:21;12.18;;;7.40;;
47239;SDS011;32978;53.586;10.052;2022-12-07T13:20:45;12.13;;;7.43;;
47239;SDS011;32978;53.586;10.052;2022-12-07T13:26:43;10.27;;;7.32;;
47239;SDS011;32978;53.586;10.052;2022-12-07T13:31:14;11.98;;;8.77;;
47239;SDS011;32978;53.586;10.052;2022-12-07T13:41:37;8.63;;;7.70;;
47239;SDS011;32978;53.586;10.052;2022-12-07T13:46:42;9.05;;;7.60;;
47239;SDS011;32978;53.586;10.052;2022-12-07T13:51:39;12.55;;;7.85;;
47239;SDS011;32978;53.586;10.052;2022-12-07T13:56:35;11.43;;;8.13;;
47239;SDS011;32978;53.586;10.052;2022-12-07T14:01:31;10.77;;;8.10;;
47239;SDS011;32978;53.586;10.052;2022-12-07T14:06:28;9.68;;;7.05;;
47239;SDS011;32978;53.586;10.052;2022-12-07T14:11:28;10.10;;;8.57;;
47239;SDS011;32978;53.586;10.052;2022-12-07T14:16:29;11.60;;;9.38;;
47239;SDS011;32978;53.586;10.052;2022-12-07T14:21:27;11.23;;;7.40;;
47239;SDS011;32978;53.586;10.052;2022-12-07T14:26:24;8.60;;;7.75;;
47239;SDS011;32978;53.586;10.052;2022-12-07T14:31:21;8.70;;;7.45;;
47239;SDS011;32978;53.586;10.052;2022-12-07T14:36:26;10.77;;;7.85;;
47239;SDS011;32978;53.586;10.052;2022-12-07T14:41:22;9.30;;;8.07;;
47239;SDS011;32978;53.586;10.052;2022-12-07T14:46:37;10.93;;;8.10;;
47239;SDS011;32978;53.586;10.052;2022-12-07T14:51:33;8.38;;;7.43;;
47239;SDS011;32978;53.586;10.052;2022-12-07T14:56:51;9.38;;;8.32;;
47239;SDS011;32978;53.586;10.052;2022-12-07T15:01:48;9.63;;;7.55;;
47239;SDS011;32978;53.586;10.052;2022-12-07T15:06:54;10.52;;;7.82;;
47239;SDS011;32978;53.586;10.052;2022-12-07T15:11:51;9.02;;;7.65;;
47239;SDS011;32978;53.586;10.052;2022-12-07T15:16:47;9.15;;;8.32;;
47239;SDS011;32978;53.586;10.052;2022-12-07T15:22:04;7.85;;;7.22;;
47239;SDS011;32978;53.586;10.052;2022-12-07T15:27:00;9.90;;;8.90;;
47239;SDS011;32978;53.586;10.052;2022-12-07T15:31:56;12.95;;;8.63;;
47239;SDS011;32978;53.586;10.052;2022-12-07T15:36:54;11.70;;;8.77;;
47239;SDS011;32978;53.586;10.052;2022-12-07T15:41:50;9.05;;;8.25;;
47239;SDS011;32978;53.586;10.052;2022-12-07T15:46:47;8.50;;;7.72;;
47239;SDS011;32978;53.586;10.052;2022-12-07T15:51:43;9.43;;;8.43;;
47239;SDS011;32978;53.586;10.052;2022-12-07T15:56:40;8.52;;;7.90;;
47239;SDS011;32978;53.586;10.052;2022-12-07T16:01:36;10.30;;;8.48;;
47239;SDS011;32978;53.586;10.052;2022-12-07T16:06:32;10.25;;;8.45;;
47239;SDS011;32978;53.586;10.052;2022-12-07T16:11:29;9.27;;;8.45;;
47239;SDS011;32978;53.586;10.052;2022-12-07T16:16:25;9.38;;;8.40;;
47239;SDS011;32978;53.586;10.052;2022-12-07T16:21:21;12.18;;;8.40;;
47239;SDS011;32978;53.586;10.052;2022-12-07T16:26:21;10.63;;;9.50;;
47239;SDS011;32978;53.586;10.052;2022-12-07T16:31:18;9.32;;;7.80;;
47239;SDS011;32978;53.586;10.052;2022-12-07T16:36:15;11.32;;;10.20;;
47239;SDS011;32978;53.586;10.052;2022-12-07T16:41:32;11.07;;;9.77;;
47239;SDS011;32978;53.586;10.052;2022-12-07T16:46:28;10.18;;;9.23;;
47239;SDS011;32978;53.586;10.052;2022-12-07T16:51:26;16.48;;;8.70;;
47239;SDS011;32978;53.586;10.052;2022-12-07T16:56:23;8.60;;;7.90;;
47239;SDS011;32978;53.586;10.052;2022-12-07T17:01:20;9.55;;;8.75;;
47239;SDS011;32978;53.586;10.052;2022-12-07T17:06:22;10.82;;;9.27;;
47239;SDS011;32978;53.586;10.052;2022-12-07T17:11:20;10.55;;;9.65;;
47239;SDS011;32978;53.586;10.052;2022-12-07T17:16:17;10.18;;;9.15;;
47239;SDS011;32978;53.586;10.052;2022-12-07T17:21:13;11.27;;;10.15;;
47239;SDS011;32978;53.586;10.052;2022-12-07T17:26:14;12.15;;;10.73;;
47239;SDS011;32978;53.586;10.052;2022-12-07T17:31:12;11.40;;;10.23;;
47239;SDS011;32978;53.586;10.052;2022-12-07T17:36:09;10.52;;;9.10;;
47239;SDS011;32978;53.586;10.052;2022-12-07T17:41:10;12.80;;;9.35;;
47239;SDS011;32978;53.586;10.052;2022-12-07T17:46:07;11.40;;;9.70;;
47239;SDS011;32978;53.586;10.052;2022-12-07T17:51:03;9.50;;;8.60;;
47239;SDS011;32978;53.586;10.052;2022-12-07T17:56:18;12.40;;;9.48;;
47239;SDS011;32978;53.586;10.052;2022-12-07T18:01:24;10.73;;;9.60;;
47239;SDS011;32978;53.586;10.052;2022-12-07T18:06:28;12.85;;;10.40;;
47239;SDS011;32978;53.586;10.052;2022-12-07T18:11:24;11.00;;;9.93;;
47239;SDS011;32978;53.586;10.052;2022-12-07T18:16:22;11.07;;;9.88;;
47239;SDS011;32978;53.586;10.052;2022-12-07T18:21:20;12.40;;;11.10;;
47239;SDS011;32978;53.586;10.052;2022-12-07T18:26:17;11.90;;;10.80;;
47239;SDS011;32978;53.586;10.052;2022-12-07T18:31:14;16.35;;;10.80;;
47239;SDS011;32978;53.586;10.052;2022-12-07T18:36:11;12.05;;;10.45;;
47239;SDS011;32978;53.586;10.052;2022-12-07T18:41:09;12.38;;;11.30;;
47239;SDS011;32978;53.586;10.052;2022-12-07T18:46:24;14.82;;;11.55;;
47239;SDS011;32978;53.586;10.052;2022-12-07T18:51:20;12.75;;;11.57;;
47239;SDS011;32978;53.586;10.052;2022-12-07T18:56:20;13.10;;;11.80;;
47239;SDS011;32978;53.586;10.052;2022-12-07T19:01:16;14.75;;;12.52;;
47239;SDS011;32978;53.586;10.052;2022-12-07T19:06:12;13.93;;;12.48;;
47239;SDS011;32978;53.586;10.052;2022-12-07T19:11:18;12.77;;;11.68;;
47239;SDS011;32978;53.586;10.052;2022-12-07T19:16:33;14.25;;;12.75;;
47239;SDS011;32978;53.586;10.052;2022-12-07T19:21:30;18.73;;;13.82;;
47239;SDS011;32978;53.586;10.052;2022-12-07T19:26:26;16.38;;;14.77;;
47239;SDS011;32978;53.586;10.052;2022-12-07T19:31:23;14.60;;;13.13;;
47239;SDS011;32978;53.586;10.052;2022-12-07T19:36:19;15.38;;;13.60;;
47239;SDS011;32978;53.586;10.052;2022-12-07T19:41:16;16.08;;;14.45;;
47239;SDS011;32978;53.586;10.052;2022-12-07T19:46:30;15.63;;;14.05;;
47239;SDS011;32978;53.586;10.052;2022-12-07T19:51:28;16.65;;;14.88;;
47239;SDS011;32978;53.586;10.052;2022-12-07T19:56:25;16.88;;;15.20;;
47239;SDS011;32978;53.586;10.052;2022-12-07T20:01:21;18.50;;;17.00;;
47239;SDS011;32978;53.586;10.052;2022-12-07T20:06:18;19.88;;;17.98;;
47239;SDS011;32978;53.586;10.052;2022-12-07T20:11:15;20.67;;;19.02;;
47239;SDS011;32978;53.586;10.052;2022-12-07T20:16:30;22.45;;;20.63;;
47239;SDS011;32978;53.586;10.052;2022-12-07T20:21:26;24.30;;;22.40;;
47239;SDS011;32978;53.586;10.052;2022-12-07T20:26:23;24.63;;;22.48;;
47239;SDS011;32978;53.586;10.052;2022-12-07T20:31:19;25.00;;;22.45;;
47239;SDS011;32978;53.586;10.052;2022-12-07T20:36:16;25.27;;;23.27;;
47239;SDS011;32978;53.586;10.052;2022-12-07T20:41:13;27.05;;;25.05;;
47239;SDS011;32978;53.586;10.052;2022-12-07T20:46:27;28.27;;;25.73;;
47239;SDS011;32978;53.586;10.052;2022-12-07T20:51:24;27.55;;;25.55;;
47239;SDS011;32978;53.586;10.052;2022-12-07T20:56:24;28.05;;;25.95;;
47239;SDS011;32978;53.586;10.052;2022-12-07T21:01:22;27.00;;;25.13;;
47239;SDS011;32978;53.586;10.052;2022-12-07T21:06:19;27.70;;;25.40;;
47239;SDS011;32978;53.586;10.052;2022-12-07T21:11:15;28.58;;;26.40;;
47239;SDS011;32978;53.586;10.052;2022-12-07T21:16:14;26.88;;;24.70;;
47239;SDS011;32978;53.586;10.052;2022-12-07T21:21:10;27.52;;;25.58;;
47239;SDS011;32978;53.586;10.052;2022-12-07T21:26:07;27.98;;;25.90;;
47239;SDS011;32978;53.586;10.052;2022-12-07T21:31:04;28.45;;;26.25;;
47239;SDS011;32978;53.586;10.052;2022-12-07T21:36:09;27.80;;;26.00;;
47239;SDS011;32978;53.586;10.052;2022-12-07T21:41:25;26.25;;;24.27;;
47239;SDS011;32978;53.586;10.052;2022-12-07T21:46:22;27.13;;;25.48;;
47239;SDS011;32978;53.586;10.052;2022-12-07T21:51:27;28.05;;;26.20;;
47239;SDS011;32978;53.586;10.052;2022-12-07T21:56:27;31.10;;;28.92;;
47239;SDS011;32978;53.586;10.052;2022-12-07T22:01:25;29.88;;;27.67;;
47239;SDS011;32978;53.586;10.052;2022-12-07T22:06:22;28.38;;;26.58;;
47239;SDS011;32978;53.586;10.052;2022-12-07T22:11:19;33.08;;;30.30;;
47239;SDS011;32978;53.586;10.052;2022-12-07T22:16:15;32.63;;;30.20;;
47239;SDS011;32978;53.586;10.052;2022-12-07T22:21:12;33.92;;;31.30;;
47239;SDS011;32978;53.586;10.052;2022-12-07T22:26:09;34.25;;;31.90;;
47239;SDS011;32978;53.586;10.052;2022-12-07T22:31:07;36.03;;;33.40;;
47239;SDS011;32978;53.586;10.052;2022-12-07T22:36:04;38.22;;;35.72;;
47239;SDS011;32978;53.586;10.052;2022-12-07T22:41:06;39.90;;;37.00;;
47239;SDS011;32978;53.586;10.052;2022-12-07T22:46:03;39.40;;;36.75;;
47239;SDS011;32978;53.586;10.052;2022-12-07T22:51:00;38.45;;;35.95;;
47239;SDS011;32978;53.586;10.052;2022-12-07T22:55:56;40.03;;;37.15;;
47239;SDS011;32978;53.586;10.052;2022-12-07T23:00:53;39.63;;;36.92;;
47239;SDS011;32978;53.586;10.052;2022-12-07T23:05:49;42.50;;;39.45;;
47239;SDS011;32978;53.586;10.052;2022-12-07T23:10:46;46.03;;;42.63;;
47239;SDS011;32978;53.586;10.052;2022-12-07T23:15:43;45.60;;;42.50;;
47239;SDS011;32978;53.586;10.052;2022-12-07T23:20:39;48.25;;;44.67;;
47239;SDS011;32978;53.586;10.052;2022-12-07T23:25:35;46.88;;;43.67;;
47239;SDS011;32978;53.586;10.052;2022-12-07T23:30:32;51.05;;;47.47;;
47239;SDS011;32978;53.586;10.052;2022-12-07T23:35:28;51.50;;;48.00;;
47239;SDS011;32978;53.586;10.052;2022-12-07T23:40:24;54.95;;;51.05;;
47239;SDS011;32978;53.586;10.052;2022-12-07T23:45:20;54.88;;;50.88;;
47239;SDS011;32978;53.586;10.052;2022-12-07T23:50:16;54.30;;;50.33;;
47239;SDS011;32978;53.586;10.052;2022-12-07T23:55:13;55.92;;;51.78;;
